createdAt,value
2018-06-21T00:01:29.134Z,5.13
2018-06-21T00:03:56.568Z,5.40
2018-06-21T00:06:24.028Z,5.07
2018-06-21T00:08:51.468Z,5.63
2018-06-21T00:11:18.893Z,5.67
2018-06-21T00:13:46.282Z,5.60
2018-06-21T00:16:13.742Z,5.50
2018-06-21T00:18:41.172Z,5.10
2018-06-21T00:21:08.583Z,5.53
2018-06-21T00:23:36.346Z,4.83
2018-06-21T00:26:03.960Z,4.83
2018-06-21T00:28:31.431Z,5.17
2018-06-21T00:30:58.941Z,5.37
2018-06-21T00:33:26.420Z,5.70
2018-06-21T00:35:53.893Z,5.70
2018-06-21T00:38:21.468Z,5.70
2018-06-21T00:40:49.053Z,5.40
2018-06-21T00:43:16.555Z,5.40
2018-06-21T00:45:44.167Z,5.20
2018-06-21T00:48:11.897Z,4.73
2018-06-21T00:50:39.471Z,5.30
2018-06-21T00:53:06.960Z,5.33
2018-06-21T00:55:46.072Z,5.20
2018-06-21T00:58:13.646Z,5.33
2018-06-21T01:00:41.118Z,5.00
2018-06-21T01:03:08.741Z,5.20
2018-06-21T01:05:36.356Z,5.47
2018-06-21T01:08:03.845Z,5.80
2018-06-21T01:10:31.300Z,5.63
2018-06-21T01:12:58.866Z,5.20
2018-06-21T01:15:26.313Z,6.00
2018-06-21T01:17:53.809Z,5.77
2018-06-21T01:20:21.429Z,5.63
2018-06-21T01:22:49.039Z,6.00
2018-06-21T01:25:16.735Z,5.67
2018-06-21T01:27:44.206Z,5.97
2018-06-21T01:30:11.653Z,6.00
2018-06-21T01:32:39.131Z,5.77
2018-06-21T01:35:06.704Z,5.93
2018-06-21T01:37:34.125Z,5.80
2018-06-21T01:40:01.552Z,5.43
2018-06-21T01:42:28.957Z,6.50
2018-06-21T01:44:56.381Z,6.50
2018-06-21T01:47:23.767Z,6.57
2018-06-21T01:49:51.253Z,6.73
2018-06-21T01:52:18.718Z,6.17
2018-06-21T01:54:46.199Z,6.40
2018-06-21T01:57:13.630Z,6.50
2018-06-21T02:02:16.088Z,5.83
2018-06-21T02:04:44.067Z,6.13
2018-06-21T02:07:11.764Z,6.60
2018-06-21T02:09:39.840Z,6.53
2018-06-21T02:12:09.586Z,5.33
2018-06-21T02:14:38.166Z,5.73
2018-06-21T02:17:05.713Z,5.93
2018-06-21T02:19:42.276Z,5.83
2018-06-21T02:22:11.745Z,5.20
2018-06-21T02:24:39.295Z,5.80
2018-06-21T02:27:07.084Z,5.90
2018-06-21T02:29:34.654Z,6.00
2018-06-21T02:32:03.247Z,5.53
2018-06-21T02:34:30.693Z,4.80
2018-06-21T02:36:58.182Z,5.40
2018-06-21T02:39:25.664Z,5.00
2018-06-21T02:41:53.090Z,4.40
2018-06-21T02:44:20.561Z,4.37
2018-06-21T02:46:48.020Z,5.20
2018-06-21T02:49:15.717Z,4.83
2018-06-21T02:51:43.227Z,4.17
2018-06-21T02:54:10.686Z,3.27
2018-06-21T02:56:38.119Z,3.33
2018-06-21T02:59:05.721Z,3.20
2018-06-21T03:01:33.145Z,2.50
2018-06-21T03:04:00.619Z,2.40
2018-06-21T03:06:27.974Z,2.50
2018-06-21T03:08:55.367Z,2.23
2018-06-21T03:11:22.778Z,2.60
2018-06-21T03:13:50.230Z,2.47
2018-06-21T03:16:17.641Z,3.10
2018-06-21T03:18:45.065Z,2.90
2018-06-21T03:21:12.475Z,2.10
2018-06-21T03:23:40.400Z,1.60
2018-06-21T03:26:07.849Z,2.33
2018-06-21T03:28:35.281Z,2.60
2018-06-21T03:31:02.730Z,1.60
2018-06-21T03:33:30.146Z,1.73
2018-06-21T03:35:57.514Z,1.87
2018-06-21T03:38:24.947Z,2.00
2018-06-21T03:40:52.326Z,1.50
2018-06-21T03:43:19.746Z,1.50
2018-06-21T03:45:47.200Z,1.40
2018-06-21T03:48:14.610Z,1.60
2018-06-21T03:50:42.077Z,1.37
2018-06-21T03:53:09.525Z,1.70
2018-06-21T03:55:36.947Z,1.50
2018-06-21T03:58:04.706Z,1.30
2018-06-21T04:00:32.138Z,1.70
2018-06-21T04:02:59.607Z,1.53
2018-06-21T04:05:28.947Z,1.40
2018-06-21T04:07:56.492Z,1.63
2018-06-21T04:10:24.159Z,1.80
2018-06-21T04:12:51.764Z,1.40
2018-06-21T04:15:19.656Z,1.63
2018-06-21T04:17:47.306Z,1.43
2018-06-21T04:20:14.879Z,1.63
2018-06-21T04:22:42.377Z,1.40
2018-06-21T04:25:09.806Z,1.50
2018-06-21T04:27:37.270Z,1.63
2018-06-21T04:30:05.056Z,1.23
2018-06-21T04:32:38.457Z,1.40
2018-06-21T04:35:06.692Z,1.07
2018-06-21T04:37:34.485Z,1.20
2018-06-21T04:40:02.491Z,1.30
2018-06-21T04:42:30.183Z,1.33
2018-06-21T04:44:57.822Z,1.30
2018-06-21T04:47:25.661Z,1.33
2018-06-21T04:49:53.190Z,1.43
2018-06-21T04:52:20.757Z,1.30
2018-06-21T04:54:48.369Z,1.10
2018-06-21T04:57:15.941Z,1.30
2018-06-21T04:59:43.473Z,1.30
2018-06-21T05:02:11.977Z,1.20
2018-06-21T05:04:39.490Z,1.23
2018-06-21T05:07:07.088Z,1.30
2018-06-21T05:09:34.581Z,1.10
2018-06-21T05:12:02.060Z,1.10
2018-06-21T05:14:29.476Z,0.90
2018-06-21T05:16:56.989Z,1.10
2018-06-21T05:19:24.501Z,1.00
2018-06-21T05:21:52.167Z,1.10
2018-06-21T05:24:19.665Z,1.00
2018-06-21T05:26:47.362Z,0.97
2018-06-21T05:29:15.094Z,1.00
2018-06-21T05:31:42.756Z,1.93
2018-06-21T05:34:10.284Z,1.00
2018-06-21T05:36:38.576Z,1.30
2018-06-21T05:39:07.377Z,0.97
2018-06-21T05:41:34.873Z,1.10
2018-06-21T05:44:02.905Z,0.90
2018-06-21T05:46:31.536Z,0.90
2018-06-21T05:48:59.294Z,1.00
2018-06-21T05:51:26.862Z,0.87
2018-06-21T05:53:55.229Z,1.10
2018-06-21T05:56:22.750Z,0.80
2018-06-21T05:58:50.177Z,1.03
2018-06-21T06:01:18.749Z,1.40
2018-06-21T06:03:46.505Z,0.90
2018-06-21T06:06:14.264Z,0.90
2018-06-21T06:08:41.801Z,0.83
2018-06-21T06:11:09.320Z,0.80
2018-06-21T06:13:37.111Z,0.60
2018-06-21T06:16:04.808Z,1.00
2018-06-21T06:18:32.342Z,0.70
2018-06-21T06:21:01.287Z,0.97
2018-06-21T06:23:29.028Z,0.80
2018-06-21T06:25:56.559Z,1.10
2018-06-21T06:28:24.055Z,1.10
2018-06-21T06:30:51.641Z,1.30
2018-06-21T06:33:19.224Z,0.90
2018-06-21T06:35:46.960Z,1.00
2018-06-21T06:38:14.470Z,0.90
2018-06-21T06:40:41.994Z,1.03
2018-06-21T06:43:09.552Z,1.00
2018-06-21T06:45:37.970Z,0.60
2018-06-21T06:48:05.564Z,0.70
2018-06-21T06:50:32.957Z,0.97
2018-06-21T06:53:00.344Z,0.50
2018-06-21T06:55:27.758Z,0.80
2018-06-21T06:57:55.199Z,1.03
2018-06-21T07:00:22.590Z,0.70
2018-06-21T07:02:50.023Z,0.60
2018-06-21T07:05:17.448Z,0.70
2018-06-21T07:07:44.844Z,0.70
2018-06-21T07:10:12.266Z,0.30
2018-06-21T07:12:39.674Z,0.87
2018-06-21T07:15:07.131Z,0.60
2018-06-21T07:17:34.653Z,0.40
2018-06-21T07:20:02.123Z,0.40
2018-06-21T07:22:29.523Z,0.40
2018-06-21T07:24:56.949Z,0.50
2018-06-21T07:27:24.342Z,0.47
2018-06-21T07:29:51.791Z,0.30
2018-06-21T07:32:19.181Z,0.43
2018-06-21T07:34:46.602Z,0.50
2018-06-21T07:37:13.997Z,0.50
2018-06-21T07:39:41.593Z,0.40
2018-06-21T07:42:09.005Z,0.60
2018-06-21T07:44:36.469Z,0.33
2018-06-21T07:47:03.886Z,0.60
2018-06-21T07:49:31.288Z,0.23
2018-06-21T07:51:58.694Z,0.50
2018-06-21T07:54:26.070Z,0.47
2018-06-21T07:56:53.503Z,0.50
2018-06-21T07:59:20.893Z,0.60
2018-06-21T08:01:48.302Z,0.53
2018-06-21T08:04:15.700Z,0.50
2018-06-21T08:06:43.093Z,0.70
2018-06-21T08:09:12.065Z,0.57
2018-06-21T08:11:39.517Z,0.70
2018-06-21T08:14:06.978Z,0.67
2018-06-21T08:16:34.557Z,0.60
2018-06-21T08:19:02.196Z,0.73
2018-06-21T08:21:29.608Z,0.67
2018-06-21T08:23:57.005Z,0.93
2018-06-21T08:26:24.429Z,0.80
2018-06-21T08:28:51.832Z,0.60
2018-06-21T08:31:19.233Z,1.00
2018-06-21T08:33:46.649Z,0.67
2018-06-21T08:36:14.085Z,0.80
2018-06-21T08:38:41.553Z,0.77
2018-06-21T08:41:08.989Z,0.77
2018-06-21T08:43:36.621Z,0.50
2018-06-21T08:46:04.145Z,0.70
2018-06-21T08:48:31.526Z,0.90
2018-06-21T08:50:58.960Z,0.90
2018-06-21T08:53:26.369Z,1.00
2018-06-21T08:55:53.805Z,0.80
2018-06-21T08:58:21.238Z,1.13
2018-06-21T09:00:48.717Z,1.20
2018-06-21T09:03:16.109Z,0.73
2018-06-21T09:05:43.521Z,0.70
2018-06-21T09:08:10.932Z,0.87
2018-06-21T09:10:38.506Z,1.00
2018-06-21T09:13:06.768Z,0.83
2018-06-21T09:15:34.188Z,0.80
2018-06-21T09:18:01.626Z,1.00
2018-06-21T09:20:29.161Z,1.10
2018-06-21T09:22:56.599Z,0.83
2018-06-21T09:25:24.237Z,1.00
2018-06-21T09:27:51.722Z,0.90
2018-06-21T09:30:19.281Z,1.37
2018-06-21T09:32:47.909Z,1.00
2018-06-21T09:35:15.773Z,1.10
2018-06-21T09:37:49.084Z,1.00
2018-06-21T09:40:29.378Z,0.90
2018-06-21T09:43:02.904Z,1.07
2018-06-21T09:45:35.896Z,0.83
2018-06-21T09:48:09.053Z,0.80
2018-06-21T09:50:36.450Z,0.90
2018-06-21T09:53:03.881Z,1.20
2018-06-21T09:55:31.306Z,1.10
2018-06-21T10:00:25.474Z,1.20
2018-06-21T10:02:52.900Z,1.50
2018-06-21T10:05:20.309Z,1.37
2018-06-21T10:07:47.911Z,1.40
2018-06-21T10:10:15.377Z,1.30
2018-06-21T10:12:44.559Z,1.50
2018-06-21T10:15:12.694Z,1.40
2018-06-21T10:17:40.197Z,1.40
2018-06-21T10:20:07.662Z,1.27
2018-06-21T10:22:35.142Z,1.60
2018-06-21T10:25:02.598Z,1.10
2018-06-21T10:27:30.054Z,1.70
2018-06-21T10:29:57.966Z,1.47
2018-06-21T10:32:25.626Z,1.30
2018-06-21T10:34:53.110Z,1.50
2018-06-21T10:37:21.537Z,1.50
2018-06-21T10:39:50.016Z,1.30
2018-06-21T10:42:17.858Z,1.57
2018-06-21T10:44:46.419Z,1.53
2018-06-21T10:47:14.152Z,1.83
2018-06-21T10:49:42.576Z,1.50
2018-06-21T10:52:10.222Z,1.60
2018-06-21T10:54:37.718Z,1.57
2018-06-21T10:57:05.196Z,1.80
2018-06-21T10:59:32.677Z,1.50
2018-06-21T11:02:00.392Z,1.60
2018-06-21T11:04:28.311Z,1.30
2018-06-21T11:06:55.766Z,1.50
2018-06-21T11:09:24.358Z,1.73
2018-06-21T11:11:52.042Z,1.77
2018-06-21T11:14:19.623Z,1.47
2018-06-21T11:16:47.127Z,1.77
2018-06-21T11:19:18.584Z,1.70
2018-06-21T11:21:46.150Z,1.67
2018-06-21T11:24:17.191Z,1.20
2018-06-21T11:26:46.516Z,1.40
2018-06-21T11:29:14.061Z,1.40
2018-06-21T11:31:48.168Z,1.50
2018-06-21T11:34:21.297Z,1.57
2018-06-21T11:36:48.890Z,1.40
2018-06-21T11:39:16.761Z,1.27
2018-06-21T11:41:46.862Z,1.20
2018-06-21T11:44:14.547Z,1.07
2018-06-21T11:46:43.207Z,1.00
2018-06-21T11:49:10.937Z,0.97
2018-06-21T11:51:38.879Z,1.50
2018-06-21T11:54:06.376Z,1.20
2018-06-21T11:56:34.507Z,1.50
2018-06-21T11:59:05.498Z,1.10
2018-06-21T12:01:33.651Z,1.30
2018-06-21T12:04:02.481Z,1.10
2018-06-21T12:06:30.510Z,1.10
2018-06-21T12:08:59.944Z,1.00
2018-06-21T12:11:29.626Z,1.17
2018-06-21T12:13:57.151Z,1.00
2018-06-21T12:16:26.097Z,1.00
2018-06-21T12:18:53.653Z,1.20
2018-06-21T12:21:21.270Z,1.43
2018-06-21T12:23:48.723Z,1.33
2018-06-21T12:28:55.168Z,0.93
2018-06-21T12:31:22.708Z,1.10
2018-06-21T12:33:50.442Z,0.97
2018-06-21T12:36:17.957Z,1.07
2018-06-21T12:38:45.470Z,1.20
2018-06-21T12:41:14.323Z,0.80
2018-06-21T12:43:42.113Z,1.17
2018-06-21T12:46:10.531Z,1.00
2018-06-21T12:48:37.993Z,1.10
2018-06-21T12:51:05.490Z,1.00
2018-06-21T12:53:33.080Z,1.17
2018-06-21T12:56:00.733Z,1.13
2018-06-21T12:58:28.330Z,1.07
2018-06-21T13:00:55.745Z,1.10
2018-06-21T13:03:23.166Z,1.20
2018-06-21T13:05:50.604Z,1.20
2018-06-21T13:08:29.558Z,1.00
2018-06-21T13:11:08.589Z,0.63
2018-06-21T13:13:36.044Z,0.93
2018-06-21T13:16:03.445Z,1.00
2018-06-21T13:18:30.844Z,0.80
2018-06-21T13:20:58.256Z,0.90
2018-06-21T13:23:25.670Z,1.00
2018-06-21T13:25:53.102Z,0.63
2018-06-21T13:28:20.546Z,0.90
2018-06-21T13:30:47.994Z,1.00
2018-06-21T13:33:15.408Z,1.13
2018-06-21T13:35:42.919Z,0.90
2018-06-21T13:38:10.326Z,0.90
2018-06-21T13:40:37.725Z,0.73
2018-06-21T13:43:05.145Z,1.00
2018-06-21T13:45:32.602Z,1.00
2018-06-21T13:48:00.009Z,1.10
2018-06-21T13:50:27.460Z,1.13
2018-06-21T13:52:54.860Z,0.97
2018-06-21T13:55:22.318Z,0.80
2018-06-21T13:57:49.754Z,1.00
2018-06-21T14:00:17.163Z,1.23
2018-06-21T14:02:44.544Z,1.07
2018-06-21T14:05:11.986Z,0.93
2018-06-21T14:07:39.501Z,0.80
2018-06-21T14:10:06.848Z,0.90
2018-06-21T14:12:34.260Z,0.87
2018-06-21T14:15:01.699Z,0.80
2018-06-21T14:17:29.144Z,1.00
2018-06-21T14:19:56.603Z,0.90
2018-06-21T14:22:24.002Z,0.73
2018-06-21T14:24:51.405Z,0.70
2018-06-21T14:27:18.800Z,1.03
2018-06-21T14:29:46.210Z,0.77
2018-06-21T14:32:13.700Z,0.70
2018-06-21T14:34:41.076Z,1.00
2018-06-21T14:37:08.525Z,1.07
2018-06-21T14:39:35.956Z,0.53
2018-06-21T14:42:03.318Z,0.87
2018-06-21T14:44:30.710Z,1.00
2018-06-21T14:46:58.152Z,0.97
2018-06-21T14:49:25.544Z,0.50
2018-06-21T14:51:52.958Z,0.87
2018-06-21T14:54:20.394Z,1.00
2018-06-21T14:56:47.825Z,1.00
2018-06-21T14:59:15.296Z,0.87
2018-06-21T15:01:42.701Z,0.90
2018-06-21T15:04:10.085Z,0.67
2018-06-21T15:06:37.492Z,0.80
2018-06-21T15:09:08.023Z,1.00
2018-06-21T15:11:35.710Z,0.70
2018-06-21T15:14:03.134Z,1.17
2018-06-21T15:16:30.541Z,0.53
2018-06-21T15:18:57.999Z,1.00
2018-06-21T15:21:25.416Z,0.90
2018-06-21T15:23:52.845Z,1.00
2018-06-21T15:26:20.235Z,1.20
2018-06-21T15:28:47.660Z,0.60
2018-06-21T15:31:15.108Z,0.60
2018-06-21T15:33:42.491Z,0.57
2018-06-21T15:36:09.903Z,0.60
2018-06-21T15:38:37.309Z,1.07
2018-06-21T15:41:04.746Z,1.10
2018-06-21T15:43:32.161Z,0.90
2018-06-21T15:45:59.586Z,0.60
2018-06-21T15:48:27.000Z,0.70
2018-06-21T15:50:54.384Z,0.80
2018-06-21T15:53:21.846Z,0.90
2018-06-21T15:55:49.259Z,1.03
2018-06-21T15:58:16.665Z,1.00
2018-06-21T16:00:44.061Z,1.13
2018-06-21T16:03:11.538Z,0.70
2018-06-21T16:05:38.875Z,1.23
2018-06-21T16:08:06.337Z,1.23
2018-06-21T16:10:33.755Z,0.80
2018-06-21T16:13:01.154Z,1.00
2018-06-21T16:15:28.543Z,1.50
2018-06-21T16:17:55.994Z,1.30
2018-06-21T16:20:23.398Z,1.10
2018-06-21T16:22:50.866Z,0.97
2018-06-21T16:25:18.330Z,1.10
2018-06-21T16:27:45.734Z,0.80
2018-06-21T16:30:13.185Z,0.90
2018-06-21T16:32:40.836Z,0.97
2018-06-21T16:35:08.274Z,1.00
2018-06-21T16:37:35.678Z,1.30
2018-06-21T16:40:03.165Z,1.20
2018-06-21T16:42:30.607Z,1.00
2018-06-21T16:44:58.025Z,0.97
2018-06-21T16:47:25.427Z,0.97
2018-06-21T16:49:52.856Z,1.57
2018-06-21T16:52:20.281Z,1.00
2018-06-21T16:54:47.758Z,1.13
2018-06-21T16:57:15.180Z,0.70
2018-06-21T16:59:42.621Z,0.80
2018-06-21T17:02:10.090Z,0.90
2018-06-21T17:04:37.477Z,1.10
2018-06-21T17:07:04.905Z,0.90
2018-06-21T17:09:32.317Z,1.20
2018-06-21T17:11:59.718Z,0.83
2018-06-21T17:14:27.137Z,1.23
2018-06-21T17:16:54.628Z,1.23
2018-06-21T17:19:22.022Z,0.80
2018-06-21T17:21:49.445Z,1.07
2018-06-21T17:24:16.800Z,0.90
2018-06-21T17:26:44.300Z,1.00
2018-06-21T17:29:11.698Z,0.80
2018-06-21T17:31:39.136Z,1.00
2018-06-21T17:34:06.545Z,0.90
2018-06-21T17:36:33.992Z,1.20
2018-06-21T17:39:01.400Z,0.90
2018-06-21T17:41:28.819Z,1.00
2018-06-21T17:43:56.213Z,0.90
2018-06-21T17:46:23.609Z,0.93
2018-06-21T17:48:51.034Z,1.00
2018-06-21T17:51:18.467Z,0.90
2018-06-21T17:53:45.913Z,0.80
2018-06-21T17:56:13.373Z,1.00
2018-06-21T17:58:40.773Z,0.93
2018-06-21T18:01:08.274Z,1.10
2018-06-21T18:03:35.676Z,0.93
2018-06-21T18:06:03.096Z,1.30
2018-06-21T18:08:30.476Z,1.20
2018-06-21T18:10:57.914Z,1.10
2018-06-21T18:13:25.296Z,1.23
2018-06-21T18:15:52.708Z,1.00
2018-06-21T18:18:20.186Z,1.07
2018-06-21T18:20:47.628Z,0.87
2018-06-21T18:23:15.057Z,0.97
2018-06-21T18:25:42.474Z,0.90
2018-06-21T18:28:09.869Z,1.50
2018-06-21T18:30:37.298Z,0.90
2018-06-21T18:33:04.761Z,1.00
2018-06-21T18:35:32.280Z,0.80
2018-06-21T18:37:59.647Z,1.00
2018-06-21T18:40:27.074Z,0.80
2018-06-21T18:42:54.508Z,1.10
2018-06-21T18:45:21.938Z,0.97
2018-06-21T18:47:49.346Z,0.80
2018-06-21T18:50:16.750Z,1.00
2018-06-21T18:52:44.193Z,0.90
2018-06-21T18:55:11.574Z,1.10
2018-06-21T18:57:38.940Z,0.87
2018-06-21T19:00:07.560Z,0.80
2018-06-21T19:02:34.989Z,1.10
2018-06-21T19:05:02.450Z,0.80
2018-06-21T19:07:32.489Z,0.77
2018-06-21T19:10:05.597Z,0.77
2018-06-21T19:12:33.097Z,1.00
2018-06-21T19:15:00.691Z,0.90
2018-06-21T19:17:28.180Z,1.00
2018-06-21T19:19:55.648Z,1.30
2018-06-21T19:22:23.105Z,1.20
2018-06-21T19:24:50.537Z,1.00
2018-06-21T19:27:17.952Z,1.10
2018-06-21T19:29:45.355Z,1.00
2018-06-21T19:32:12.929Z,1.30
2018-06-21T19:34:40.344Z,1.23
2018-06-21T19:37:07.749Z,1.00
2018-06-21T19:39:35.264Z,1.17
2018-06-21T19:42:02.677Z,1.20
2018-06-21T19:44:30.073Z,1.20
2018-06-21T19:46:57.485Z,1.47
2018-06-21T19:49:24.923Z,1.20
2018-06-21T19:51:52.341Z,1.17
2018-06-21T19:54:19.806Z,1.20
2018-06-21T19:56:47.204Z,1.17
2018-06-21T19:59:14.589Z,1.40
2018-06-21T20:01:42.018Z,1.40
2018-06-21T20:04:09.436Z,1.17
2018-06-21T20:06:36.851Z,0.90
2018-06-21T20:09:07.011Z,1.13
2018-06-21T20:11:35.338Z,1.00
2018-06-21T20:14:02.785Z,0.77
2018-06-21T20:16:30.202Z,1.00
2018-06-21T20:19:06.098Z,1.00
2018-06-21T20:21:33.485Z,0.90
2018-06-21T20:24:00.872Z,0.70
2018-06-21T20:26:28.248Z,0.70
2018-06-21T20:28:55.692Z,0.90
2018-06-21T20:31:23.123Z,0.60
2018-06-21T20:33:50.585Z,0.70
2018-06-21T20:36:22.767Z,0.80
2018-06-21T20:38:50.170Z,0.80
2018-06-21T20:41:17.585Z,0.70
2018-06-21T20:43:45.001Z,0.60
2018-06-21T20:46:12.413Z,0.87
2018-06-21T20:48:39.822Z,0.80
2018-06-21T20:51:07.233Z,0.80
2018-06-21T20:53:34.632Z,1.03
2018-06-21T20:56:02.072Z,0.80
2018-06-21T20:58:29.464Z,0.80
2018-06-21T21:00:56.931Z,0.90
2018-06-21T21:03:24.331Z,1.10
2018-06-21T21:05:51.738Z,0.93
2018-06-21T21:08:19.173Z,1.13
2018-06-21T21:10:46.569Z,0.87
2018-06-21T21:13:13.993Z,1.20
2018-06-21T21:15:41.409Z,1.03
2018-06-21T21:18:08.819Z,0.80
2018-06-21T21:20:36.225Z,1.10
2018-06-21T21:23:03.659Z,1.10
2018-06-21T21:25:31.085Z,1.30
2018-06-21T21:27:58.564Z,1.30
2018-06-21T21:30:25.967Z,1.17
2018-06-21T21:32:53.357Z,1.00
2018-06-21T21:35:20.817Z,1.63
2018-06-21T21:37:48.232Z,1.00
2018-06-21T21:40:15.948Z,1.30
2018-06-21T21:42:43.334Z,0.97
2018-06-21T21:45:10.792Z,1.00
2018-06-21T21:47:38.235Z,1.07
2018-06-21T21:50:05.694Z,0.93
2018-06-21T21:52:33.121Z,1.00
2018-06-21T21:55:00.503Z,1.30
2018-06-21T21:57:27.937Z,1.20
2018-06-21T21:59:55.339Z,1.00
2018-06-21T22:02:22.780Z,1.23
2018-06-21T22:04:50.224Z,0.80
2018-06-21T22:07:17.613Z,0.80
2018-06-21T22:09:45.286Z,1.30
2018-06-21T22:12:12.700Z,0.90
2018-06-21T22:14:40.109Z,1.30
2018-06-21T22:17:07.511Z,1.20
2018-06-21T22:19:34.970Z,1.23
2018-06-21T22:22:02.379Z,1.00
2018-06-21T22:24:29.825Z,0.90
2018-06-21T22:26:57.249Z,0.90
2018-06-21T22:29:24.649Z,0.87
2018-06-21T22:31:52.065Z,1.07
2018-06-21T22:34:19.849Z,1.20
2018-06-21T22:36:47.601Z,0.90
2018-06-21T22:39:15.010Z,1.33
2018-06-21T22:41:43.213Z,1.03
2018-06-21T22:44:11.000Z,1.10
2018-06-21T22:46:38.388Z,1.33
2018-06-21T22:49:06.236Z,1.10
2018-06-21T22:51:33.794Z,1.03
2018-06-21T22:54:01.403Z,1.07
2018-06-21T22:56:28.849Z,1.00
2018-06-21T22:58:56.616Z,1.20
2018-06-21T23:01:23.998Z,1.03
2018-06-21T23:03:51.597Z,0.90
2018-06-21T23:06:19.024Z,1.07
2018-06-21T23:08:46.490Z,1.07
2018-06-21T23:11:13.951Z,1.33
2018-06-21T23:13:41.361Z,1.37
2018-06-21T23:16:08.749Z,1.10
2018-06-21T23:18:47.825Z,1.57
2018-06-21T23:21:15.242Z,1.20
2018-06-21T23:23:42.800Z,1.07
2018-06-21T23:26:10.208Z,1.50
2018-06-21T23:28:37.672Z,1.20
2018-06-21T23:31:05.083Z,1.30
2018-06-21T23:33:32.802Z,1.10
2018-06-21T23:36:01.103Z,1.87
2018-06-21T23:38:28.501Z,1.20
2018-06-21T23:40:55.925Z,1.37
2018-06-21T23:43:23.346Z,1.00
2018-06-21T23:45:50.749Z,1.40
2018-06-21T23:48:18.563Z,1.10
2018-06-21T23:50:46.007Z,1.40
2018-06-21T23:53:13.421Z,1.33
2018-06-21T23:55:41.001Z,1.10
2018-06-21T23:58:08.434Z,1.17
